Time;durP1;ratioP1;P1;durP2;ratioP2;P2;SDS_P1;SDS_P2;PMS_P1;PMS_P2;Temp;Humidity;BMP_temperature;BMP_pressure;BME280_temperature;BME280_humidity;BME280_pressure;Samples;Min_cycle;Max_cycle;Signal;HPM_P1;HPM_P2
2021/05/28 00:00:41;;;;;;;1.95;1.30;;;;;;;16.58;60.54;100242.16;4831638;29;20073;-71
2021/05/28 00:03:06;;;;;;;1.92;1.33;;;;;;;16.55;60.54;100249.53;4809518;29;20308;-71
2021/05/28 00:05:32;;;;;;;1.52;1.42;;;;;;;16.53;60.33;100245.56;4823086;29;20042;-72
2021/05/28 00:07:57;;;;;;;1.38;1.27;;;;;;;16.52;60.46;100252.47;4809260;29;20027;-71
2021/05/28 00:10:23;;;;;;;1.83;1.38;;;;;;;16.49;60.73;100242.03;4808978;29;20443;-72
2021/05/28 00:12:48;;;;;;;1.42;1.30;;;;;;;16.46;60.75;100255.06;4808801;29;20031;-71
2021/05/28 00:15:14;;;;;;;2.75;1.83;;;;;;;16.44;61.03;100251.88;4808989;29;20385;-72
2021/05/28 00:17:40;;;;;;;6.25;2.00;;;;;;;16.41;60.86;100241.41;4808800;29;20091;-72
2021/05/28 00:20:08;;;;;;;1.63;1.50;;;;;;;16.38;60.84;100245.91;4808858;29;20034;-71
2021/05/28 00:22:34;;;;;;;3.75;1.60;;;;;;;16.36;60.93;100245.56;4804173;29;20482;-72
2021/05/28 00:24:59;;;;;;;1.65;1.40;;;;;;;16.34;60.81;100242.38;4808914;29;20027;-71
2021/05/28 00:27:29;;;;;;;3.83;1.33;;;;;;;16.29;61.10;100242.13;4808718;29;20035;-70
2021/05/28 00:29:55;;;;;;;2.55;1.50;;;;;;;16.29;61.17;100237.25;4838037;29;20049;-71
2021/05/28 00:32:20;;;;;;;2.17;1.50;;;;;;;16.28;60.73;100241.34;4808975;29;20110;-71
2021/05/28 00:34:49;;;;;;;1.83;1.60;;;;;;;16.25;60.67;100247.13;4807582;29;20113;-71
2021/05/28 00:37:14;;;;;;;3.33;1.35;;;;;;;16.21;60.84;100246.41;4808788;29;20079;-71
2021/05/28 00:39:40;;;;;;;3.15;1.48;;;;;;;16.17;61.29;100245.72;4808457;29;20044;-73
2021/05/28 00:42:05;;;;;;;5.63;1.45;;;;;;;16.13;61.07;100245.78;4815856;29;20035;-73
2021/05/28 00:44:31;;;;;;;2.33;1.50;;;;;;;16.08;61.29;100249.94;4808274;29;20053;-72
2021/05/28 00:46:57;;;;;;;2.25;1.40;;;;;;;16.06;61.52;100248.81;4808564;29;20034;-73
2021/05/28 00:49:22;;;;;;;1.55;1.45;;;;;;;16.00;62.02;100242.06;4808781;29;20042;-73
2021/05/28 00:51:48;;;;;;;1.50;1.40;;;;;;;16.00;61.47;100247.75;4808113;29;20046;-73
2021/05/28 00:54:13;;;;;;;2.30;1.40;;;;;;;15.95;61.60;100239.78;4808344;29;20054;-73
2021/05/28 00:56:39;;;;;;;5.15;2.00;;;;;;;15.89;61.57;100241.56;4837600;29;20034;-73
2021/05/28 00:59:06;;;;;;;3.10;1.70;;;;;;;15.83;62.02;100237.63;4805237;29;20103;-73
2021/05/28 01:01:32;;;;;;;3.97;1.60;;;;;;;15.78;61.74;100241.81;4807317;29;20027;-73
2021/05/28 01:03:58;;;;;;;1.90;1.60;;;;;;;15.70;61.94;100235.53;4795630;29;20118;-72
2021/05/28 01:06:25;;;;;;;2.55;1.75;;;;;;;15.65;61.94;100243.75;4822401;29;20114;-73
2021/05/28 01:08:50;;;;;;;3.80;1.50;;;;;;;15.65;62.45;100238.09;4808331;29;20382;-73
2021/05/28 01:11:15;;;;;;;2.78;1.40;;;;;;;15.64;62.06;100242.16;4808251;29;20102;-73
2021/05/28 01:13:41;;;;;;;1.73;1.63;;;;;;;15.59;62.24;100232.13;4808169;29;20027;-73
2021/05/28 01:16:06;;;;;;;3.20;1.80;;;;;;;15.53;62.23;100233.88;4822257;29;20031;-73
2021/05/28 01:18:32;;;;;;;2.55;1.70;;;;;;;15.48;62.92;100233.59;4799833;29;20035;-73
2021/05/28 01:20:57;;;;;;;1.92;1.80;;;;;;;15.44;62.47;100228.03;4803696;29;20022;-72
2021/05/28 01:23:22;;;;;;;3.40;1.90;;;;;;;15.40;62.68;100227.31;4802536;29;20058;-73
2021/05/28 01:25:48;;;;;;;3.00;1.70;;;;;;;15.34;62.78;100220.56;4808051;29;20106;-73
2021/05/28 01:28:14;;;;;;;3.22;1.88;;;;;;;15.29;63.10;100216.22;4817413;29;20038;-72
2021/05/28 01:30:39;;;;;;;2.92;1.67;;;;;;;15.25;62.60;100217.53;4814016;29;20027;-73
2021/05/28 01:33:05;;;;;;;2.95;1.98;;;;;;;15.20;63.55;100218.84;4822130;29;20019;-73
2021/05/28 01:35:30;;;;;;;4.63;1.98;;;;;;;15.18;62.89;100217.69;4807990;29;20033;-72
2021/05/28 01:37:56;;;;;;;3.28;1.70;;;;;;;15.12;63.28;100218.22;4821829;29;20027;-73
2021/05/28 01:40:22;;;;;;;3.90;1.90;;;;;;;15.06;62.80;100219.94;4807352;29;20087;-73
2021/05/28 01:42:48;;;;;;;2.10;1.58;;;;;;;15.03;63.12;100226.50;4801828;29;20026;-71
2021/05/28 01:45:13;;;;;;;2.35;1.88;;;;;;;14.98;63.28;100218.53;4808026;29;20037;-71
2021/05/28 01:47:39;;;;;;;2.22;2.03;;;;;;;14.94;63.08;100219.84;4807876;29;20120;-71
2021/05/28 01:50:08;;;;;;;2.38;1.70;;;;;;;14.88;63.69;100213.91;4807581;29;20023;-70
2021/05/28 01:52:33;;;;;;;2.15;1.35;;;;;;;14.88;63.61;100222.38;4807633;29;20439;-71
2021/05/28 01:54:58;;;;;;;3.50;1.83;;;;;;;14.85;63.13;100226.09;4821828;29;20127;-70
2021/05/28 01:57:24;;;;;;;2.00;1.67;;;;;;;14.84;63.62;100230.16;4811345;29;20102;-71
2021/05/28 01:59:49;;;;;;;2.45;1.83;;;;;;;14.82;63.23;100221.31;4808026;29;20311;-71
2021/05/28 02:02:15;;;;;;;5.28;1.63;;;;;;;14.78;63.85;100229.84;4798604;29;20031;-71
2021/05/28 02:04:41;;;;;;;2.05;1.73;;;;;;;14.74;63.93;100236.81;4811142;29;20467;-71
2021/05/28 02:07:07;;;;;;;4.40;1.77;;;;;;;14.71;63.86;100237.69;4807433;29;20031;-71
2021/05/28 02:09:33;;;;;;;2.30;1.58;;;;;;;14.68;64.33;100242.19;4810270;29;20027;-71
2021/05/28 02:11:59;;;;;;;2.50;1.80;;;;;;;14.66;63.84;100235.38;4825290;29;20118;-71
2021/05/28 02:14:28;;;;;;;6.43;1.67;;;;;;;14.62;63.98;100241.09;4810911;29;20037;-71
2021/05/28 02:16:54;;;;;;;1.83;1.73;;;;;;;14.58;64.04;100242.41;4811007;29;20050;-71
2021/05/28 02:19:21;;;;;;;1.80;1.70;;;;;;;14.55;64.34;100235.59;4824741;29;20416;-70
2021/05/28 02:21:47;;;;;;;3.95;2.00;;;;;;;14.50;64.32;100231.22;4840363;29;20451;-71
2021/05/28 02:24:15;;;;;;;1.85;1.70;;;;;;;14.46;64.63;100238.97;4806274;29;20037;-71
2021/05/28 02:26:44;;;;;;;5.40;1.90;;;;;;;14.44;64.75;100241.44;4811027;29;20027;-71
2021/05/28 02:29:09;;;;;;;2.67;1.80;;;;;;;14.40;64.53;100246.34;4808915;29;20415;-71
2021/05/28 02:31:35;;;;;;;4.07;1.90;;;;;;;14.36;64.52;100239.94;4810015;29;20041;-73
2021/05/28 02:34:00;;;;;;;1.90;1.60;;;;;;;14.35;64.38;100240.38;4808144;29;20039;-73
2021/05/28 02:36:25;;;;;;;2.95;2.00;;;;;;;14.38;64.64;100245.97;4810285;29;20361;-72
2021/05/28 02:38:51;;;;;;;2.67;1.90;;;;;;;14.36;64.57;100239.16;4810346;29;20080;-71
2021/05/28 02:41:16;;;;;;;2.42;1.80;;;;;;;14.33;64.25;100257.78;4803078;29;20039;-71
2021/05/28 02:43:42;;;;;;;1.95;1.75;;;;;;;14.30;64.43;100258.66;4809570;29;20324;-72
2021/05/28 02:46:07;;;;;;;2.17;1.80;;;;;;;14.24;64.73;100249.03;4810134;29;20034;-72
2021/05/28 02:48:32;;;;;;;3.90;2.10;;;;;;;14.20;64.98;100249.09;4808846;29;20030;-71
2021/05/28 02:50:57;;;;;;;2.58;1.55;;;;;;;14.21;64.95;100247.88;4810381;29;20479;-71
2021/05/28 02:53:23;;;;;;;3.70;1.58;;;;;;;14.18;65.27;100253.59;4810218;29;20043;-71
2021/05/28 02:55:48;;;;;;;4.70;1.90;;;;;;;14.17;64.74;100261.28;4810201;29;20058;-71
2021/05/28 02:58:13;;;;;;;3.10;1.95;;;;;;;14.17;65.26;100260.47;4810543;29;20096;-72
2021/05/28 03:00:40;;;;;;;1.90;1.77;;;;;;;14.16;64.38;100256.06;4811490;29;20031;-71
2021/05/28 03:03:05;;;;;;;2.25;1.60;;;;;;;14.11;64.37;100257.34;4810136;29;20794;-72
2021/05/28 03:05:30;;;;;;;2.97;1.60;;;;;;;14.11;64.48;100263.00;4809867;29;20042;-71
2021/05/28 03:07:56;;;;;;;2.40;1.90;;;;;;;14.11;64.77;100267.84;4833839;29;20051;-71
2021/05/28 03:10:22;;;;;;;5.90;2.10;;;;;;;14.07;65.01;100261.47;4810248;29;20030;-71
2021/05/28 03:12:47;;;;;;;4.85;1.95;;;;;;;14.08;65.23;100263.06;4809408;29;20026;-72
2021/05/28 03:15:13;;;;;;;3.53;1.88;;;;;;;14.05;64.92;100264.72;4809798;29;20128;-72
2021/05/28 03:17:42;;;;;;;3.25;1.67;;;;;;;14.05;64.87;100269.59;4809454;29;20340;-71
2021/05/28 03:20:57;;;;;;;2.17;1.60;;;;;;;14.06;64.48;100276.84;4809452;29;20058;-72
2021/05/28 03:23:03;;;;;;;3.88;1.77;;;;;;;14.05;64.86;100278.06;4804478;29;20039;-72
2021/05/28 03:25:28;;;;;;;2.15;1.70;;;;;;;14.07;64.45;100276.41;4831065;29;20041;-71
2021/05/28 03:27:54;;;;;;;3.20;2.05;;;;;;;14.09;64.81;100271.13;4838932;29;20027;-72
2021/05/28 03:30:20;;;;;;;2.42;2.00;;;;;;;14.08;64.33;100274.38;4824067;29;20122;-71
2021/05/28 03:32:46;;;;;;;4.53;1.70;;;;;;;14.05;64.68;100275.25;4809437;29;20438;-71
2021/05/28 03:35:12;;;;;;;3.00;2.08;;;;;;;14.05;64.59;100286.53;4809925;29;20049;-71
2021/05/28 03:37:39;;;;;;;4.25;1.95;;;;;;;14.06;64.57;100288.94;4809547;29;20030;-71
2021/05/28 03:40:06;;;;;;;2.42;2.00;;;;;;;14.05;64.68;100284.50;4809329;29;20102;-70
2021/05/28 03:42:31;;;;;;;4.05;1.75;;;;;;;14.06;64.84;100288.13;4802101;29;20038;-71
2021/05/28 03:44:57;;;;;;;2.45;2.00;;;;;;;14.09;64.55;100298.59;4809605;29;20038;-70
2021/05/28 03:47:22;;;;;;;5.22;2.15;;;;;;;14.09;64.90;100295.75;4809077;29;20031;-70
2021/05/28 03:49:48;;;;;;;1.85;1.65;;;;;;;14.09;64.88;100293.72;4808754;29;20038;-70
2021/05/28 03:52:13;;;;;;;5.18;2.30;;;;;;;14.11;64.55;100294.09;4823240;29;20053;-71
2021/05/28 03:54:39;;;;;;;3.05;2.22;;;;;;;14.13;64.80;100293.66;4807693;29;20038;-73
2021/05/28 03:57:05;;;;;;;2.80;2.00;;;;;;;14.18;64.76;100302.44;4821804;29;20077;-71
2021/05/28 03:59:31;;;;;;;3.85;2.15;;;;;;;14.22;64.36;100296.72;4799615;29;20038;-72
2021/05/28 04:01:56;;;;;;;3.88;2.15;;;;;;;14.30;64.43;100308.75;4808569;29;20092;-72
2021/05/28 04:04:22;;;;;;;2.50;2.30;;;;;;;14.35;64.22;100300.56;4823069;29;20035;-73
2021/05/28 04:06:47;;;;;;;10.25;2.58;;;;;;;14.36;64.57;100298.53;4822888;29;20079;-70
2021/05/28 04:09:12;;;;;;;4.47;1.98;;;;;;;14.41;64.73;100298.03;4809370;29;20042;-74
2021/05/28 04:11:38;;;;;;;3.33;2.13;;;;;;;14.45;64.13;100304.44;4822787;29;20027;-71
2021/05/28 04:14:03;;;;;;;4.40;2.58;;;;;;;14.50;63.71;100301.91;4760088;29;20096;-70
2021/05/28 04:16:29;;;;;;;3.22;1.85;;;;;;;14.57;63.94;100311.53;4821367;29;20031;-57
2021/05/28 04:18:54;;;;;;;3.92;2.40;;;;;;;14.62;64.21;100311.00;4806040;29;20042;-63
2021/05/28 04:21:19;;;;;;;6.03;2.30;;;;;;;14.65;64.02;100316.59;4822634;29;20027;-75
2021/05/28 04:23:45;;;;;;;5.43;2.20;;;;;;;14.71;64.03;100305.59;4807216;29;20045;-75
2021/05/28 04:26:10;;;;;;;4.00;2.15;;;;;;;14.76;64.15;100305.06;4806869;29;20031;-75
2021/05/28 04:28:36;;;;;;;2.58;1.95;;;;;;;14.82;64.23;100309.03;4819347;29;20335;-74
2021/05/28 04:31:02;;;;;;;5.18;2.28;;;;;;;14.88;63.86;100310.09;4806217;29;20110;-76
2021/05/28 04:33:28;;;;;;;5.68;2.38;;;;;;;14.95;64.10;100301.47;4808209;29;20035;-73
2021/05/28 04:35:53;;;;;;;3.25;2.13;;;;;;;15.03;63.15;100300.09;4819861;29;20031;-73
2021/05/28 04:38:18;;;;;;;3.28;1.88;;;;;;;15.11;62.82;100303.59;4807745;29;20412;-73
2021/05/28 04:40:44;;;;;;;3.50;2.20;;;;;;;15.17;62.69;100309.53;4804557;29;20410;-69
2021/05/28 04:43:10;;;;;;;5.05;1.67;;;;;;;15.24;62.50;100315.03;4807449;29;20027;-69
2021/05/28 04:45:36;;;;;;;2.25;2.00;;;;;;;15.31;62.88;100309.22;4820917;29;20438;-69
2021/05/28 04:48:01;;;;;;;2.80;1.88;;;;;;;15.38;62.46;100323.25;4808106;29;20031;-69
2021/05/28 04:50:31;;;;;;;4.32;2.45;;;;;;;15.46;61.88;100328.31;4806398;29;20054;-70
2021/05/28 04:53:00;;;;;;;4.43;2.13;;;;;;;15.55;62.03;100324.06;4806899;29;20034;-70
2021/05/28 04:55:27;;;;;;;3.03;1.88;;;;;;;15.62;61.79;100327.59;4807211;29;20027;-70
2021/05/28 04:57:53;;;;;;;3.92;2.17;;;;;;;15.69;61.84;100327.44;4807463;29;20424;-70
2021/05/28 05:00:20;;;;;;;4.57;2.75;;;;;;;15.78;61.62;100329.66;4806159;29;20030;-70
2021/05/28 05:02:45;;;;;;;3.65;1.88;;;;;;;15.84;60.88;100325.06;4807607;29;20102;-69
2021/05/28 05:05:11;;;;;;;7.00;2.40;;;;;;;15.91;61.28;100324.91;4807724;29;20105;-69
2021/05/28 05:07:36;;;;;;;4.68;1.98;;;;;;;15.99;61.28;100326.31;4822197;29;20339;-69
2021/05/28 05:10:03;;;;;;;6.47;1.88;;;;;;;16.07;60.93;100332.63;4808226;29;20113;-69
2021/05/28 05:12:29;;;;;;;3.08;2.22;;;;;;;16.15;61.17;100336.06;4807951;29;20031;-69
2021/05/28 05:14:54;;;;;;;6.68;2.22;;;;;;;16.22;61.50;100328.22;4807769;29;20104;-69
2021/05/28 05:17:20;;;;;;;2.25;2.05;;;;;;;16.33;60.15;100327.91;4807927;29;20113;-70
2021/05/28 05:19:45;;;;;;;2.72;1.95;;;;;;;16.43;60.53;100326.03;4808114;29;20095;-70
2021/05/28 05:22:10;;;;;;;4.25;1.70;;;;;;;16.53;60.82;100330.66;4807829;29;20117;-69
2021/05/28 05:24:36;;;;;;;11.75;1.85;;;;;;;16.63;60.08;100330.38;4808249;29;20034;-69
2021/05/28 05:27:01;;;;;;;3.28;1.85;;;;;;;16.75;59.32;100331.72;4808104;29;20083;-70
2021/05/28 05:29:27;;;;;;;11.38;1.98;;;;;;;16.87;59.37;100330.97;4808005;29;20035;-69
2021/05/28 05:31:53;;;;;;;3.28;1.63;;;;;;;16.97;59.05;100329.88;4811759;29;20023;-69
2021/05/28 05:34:19;;;;;;;2.25;1.80;;;;;;;17.07;58.45;100330.03;4811771;29;20109;-70
2021/05/28 05:36:45;;;;;;;4.90;1.92;;;;;;;17.14;58.47;100332.66;4811577;29;20096;-69
2021/05/28 05:39:11;;;;;;;4.80;1.52;;;;;;;17.25;58.43;100330.31;4811978;29;20087;-69
2021/05/28 05:41:36;;;;;;;3.38;1.75;;;;;;;17.35;57.99;100334.09;4804226;29;20031;-70
2021/05/28 05:44:02;;;;;;;6.25;2.50;;;;;;;17.43;56.43;100335.47;4811513;29;20454;-70
2021/05/28 05:46:27;;;;;;;5.25;2.15;;;;;;;17.49;57.04;100343.00;4810352;29;20194;-70
2021/05/28 05:48:52;;;;;;;8.10;2.15;;;;;;;17.57;56.53;100349.28;4811860;29;20030;-69
2021/05/28 05:51:18;;;;;;;9.40;2.20;;;;;;;17.64;56.31;100351.09;4811561;29;20057;-69
2021/05/28 05:53:43;;;;;;;4.70;1.95;;;;;;;17.72;55.91;100346.81;4811108;29;20042;-69
2021/05/28 05:56:09;;;;;;;4.72;1.80;;;;;;;17.79;56.39;100349.44;4811864;29;20034;-69
2021/05/28 05:58:34;;;;;;;5.25;1.80;;;;;;;17.85;56.40;100353.31;4811012;29;20050;-69
2021/05/28 06:00:59;;;;;;;6.57;1.83;;;;;;;17.89;55.05;100357.66;4803548;29;20024;-69
2021/05/28 06:03:25;;;;;;;9.55;2.25;;;;;;;17.92;56.47;100359.56;4806232;29;20041;-69
2021/05/28 06:05:51;;;;;;;7.28;2.00;;;;;;;17.95;54.95;100366.41;4811350;29;20046;-69
2021/05/28 06:08:16;;;;;;;2.20;1.65;;;;;;;17.96;54.61;100359.47;4811385;29;20118;-69
2021/05/28 06:10:41;;;;;;;2.47;1.80;;;;;;;17.98;55.26;100359.81;4810946;29;20060;-70
2021/05/28 06:13:07;;;;;;;4.57;1.80;;;;;;;18.01;54.68;100370.25;4825105;29;20035;-69
2021/05/28 06:15:34;;;;;;;5.53;1.83;;;;;;;18.04;54.96;100375.03;4810842;29;20035;-70
2021/05/28 06:18:00;;;;;;;5.38;1.60;;;;;;;18.09;55.15;100371.66;4811004;29;20023;-69
2021/05/28 06:20:26;;;;;;;4.43;1.60;;;;;;;18.14;54.52;100381.66;4810801;29;20034;-68
2021/05/28 06:22:51;;;;;;;4.15;1.50;;;;;;;18.19;54.72;100376.19;4809959;29;20094;-68
2021/05/28 06:25:17;;;;;;;6.82;1.60;;;;;;;18.25;53.85;100378.47;4840197;29;20438;-70
2021/05/28 06:27:43;;;;;;;4.40;1.63;;;;;;;18.30;53.12;100375.03;4810532;29;20027;-69
2021/05/28 06:30:09;;;;;;;1.75;1.33;;;;;;;18.34;52.74;100378.56;4809965;29;20035;-69
2021/05/28 06:32:35;;;;;;;8.15;1.55;;;;;;;18.39;53.09;100378.00;4809500;29;20065;-69
2021/05/28 06:35:01;;;;;;;4.80;1.83;;;;;;;18.45;53.71;100373.31;4806874;29;20027;-69
2021/05/28 06:37:26;;;;;;;7.82;1.80;;;;;;;18.51;53.37;100380.81;4805861;29;20041;-69
2021/05/28 06:39:51;;;;;;;9.48;2.08;;;;;;;18.60;53.81;100379.31;4810715;29;20035;-68
2021/05/28 06:42:17;;;;;;;1.95;1.75;;;;;;;18.66;52.72;100380.38;4816601;29;20027;-69
2021/05/28 06:44:42;;;;;;;2.15;1.70;;;;;;;18.72;52.08;100375.69;4810412;29;20118;-60
2021/05/28 06:47:08;;;;;;;5.85;1.73;;;;;;;18.76;53.61;100382.06;4810807;29;20412;-69
2021/05/28 06:49:33;;;;;;;3.13;1.40;;;;;;;18.84;52.77;100380.56;4810679;29;20323;-69
2021/05/28 06:51:58;;;;;;;2.78;1.63;;;;;;;18.91;53.13;100380.31;4810312;29;20081;-69
2021/05/28 06:54:24;;;;;;;5.50;1.30;;;;;;;18.99;52.25;100378.00;4810567;29;20031;-69
2021/05/28 06:56:49;;;;;;;3.92;1.70;;;;;;;19.09;53.01;100374.78;4824081;29;20038;-69
2021/05/28 06:59:15;;;;;;;8.27;1.70;;;;;;;19.17;52.39;100375.31;4810483;29;20027;-70
2021/05/28 07:01:40;;;;;;;2.22;1.40;;;;;;;19.25;52.47;100384.41;4797428;29;20320;-70
2021/05/28 07:04:06;;;;;;;4.72;1.60;;;;;;;19.31;53.00;100377.66;4810373;29;20027;-69
2021/05/28 07:06:32;;;;;;;1.90;1.40;;;;;;;19.41;53.23;100372.78;4824210;29;20039;-69
2021/05/28 07:08:58;;;;;;;6.35;1.38;;;;;;;19.47;51.97;100382.38;4810158;29;20050;-69
2021/05/28 07:11:24;;;;;;;2.58;1.50;;;;;;;19.52;51.67;100373.22;4839468;29;20352;-69
2021/05/28 07:13:49;;;;;;;4.18;1.50;;;;;;;19.57;51.47;100383.25;4809856;29;20035;-70
2021/05/28 07:16:15;;;;;;;4.45;1.40;;;;;;;19.63;51.11;100376.47;4810125;29;20022;-69
2021/05/28 07:18:41;;;;;;;3.13;1.27;;;;;;;19.70;50.75;100378.25;4823921;29;20066;-68
2021/05/28 07:21:07;;;;;;;8.00;1.60;;;;;;;19.78;51.62;100379.56;4809877;29;20058;-69
2021/05/28 07:23:32;;;;;;;2.13;1.40;;;;;;;19.86;50.37;100374.38;4808891;29;20034;-69
2021/05/28 07:26:00;;;;;;;5.85;1.33;;;;;;;19.94;49.50;100375.69;4823745;29;20029;-69
2021/05/28 07:28:27;;;;;;;3.78;1.63;;;;;;;19.95;49.90;100380.91;4809699;29;20034;-69
2021/05/28 07:30:53;;;;;;;2.15;1.67;;;;;;;19.98;48.95;100377.13;4823879;29;20019;-69
2021/05/28 07:33:18;;;;;;;2.97;1.30;;;;;;;20.02;49.54;100372.09;4809956;29;20023;-69
2021/05/28 07:35:44;;;;;;;4.85;1.50;;;;;;;20.04;49.72;100380.97;4809646;29;20058;-69
2021/05/28 07:38:09;;;;;;;3.13;1.48;;;;;;;20.09;49.62;100373.88;4809559;29;20042;-69
2021/05/28 07:40:35;;;;;;;9.95;1.85;;;;;;;20.15;49.72;100382.59;4821470;29;20061;-69
2021/05/28 07:43:01;;;;;;;3.10;1.48;;;;;;;20.19;50.18;100381.19;4819066;29;20129;-69
2021/05/28 07:45:26;;;;;;;3.65;1.70;;;;;;;20.23;47.93;100383.91;4809513;29;20026;-69
2021/05/28 07:47:51;;;;;;;8.55;1.40;;;;;;;20.27;48.32;100375.97;4809565;29;20023;-69
2021/05/28 07:50:17;;;;;;;6.43;1.60;;;;;;;20.32;49.57;100386.81;4809394;29;20062;-69
2021/05/28 07:52:43;;;;;;;5.70;1.77;;;;;;;20.36;48.92;100391.09;4808606;29;20035;-69
2021/05/28 07:55:09;;;;;;;9.13;1.45;;;;;;;20.45;49.17;100386.72;4808926;29;20164;-70
2021/05/28 07:57:34;;;;;;;8.18;1.60;;;;;;;20.49;48.37;100391.00;4809338;29;20035;-69
2021/05/28 08:00:00;;;;;;;6.97;1.38;;;;;;;20.54;47.42;100390.38;4808821;29;20030;-69
2021/05/28 08:02:25;;;;;;;3.97;1.40;;;;;;;20.59;47.89;100386.13;4797069;29;20038;-69
2021/05/28 08:04:51;;;;;;;1.85;1.27;;;;;;;20.62;48.33;100383.13;4809303;29;20038;-69
2021/05/28 08:07:16;;;;;;;6.25;1.20;;;;;;;20.70;48.69;100379.94;4823201;29;20089;-69
2021/05/28 08:09:42;;;;;;;2.40;1.25;;;;;;;20.78;48.75;100386.94;4808988;29;20084;-70
2021/05/28 08:12:07;;;;;;;5.28;1.27;;;;;;;20.82;46.71;100384.75;4823240;29;20034;-69
2021/05/28 08:14:33;;;;;;;2.67;1.10;;;;;;;20.86;46.88;100385.38;4808980;29;20037;-69
2021/05/28 08:16:58;;;;;;;3.05;1.33;;;;;;;20.90;46.73;100383.16;4808795;29;20109;-69
2021/05/28 08:19:24;;;;;;;4.85;1.10;;;;;;;20.94;47.17;100380.94;4809090;29;20102;-69
2021/05/28 08:21:50;;;;;;;5.18;1.70;;;;;;;20.93;46.91;100390.78;4838105;29;20035;-70
2021/05/28 08:24:15;;;;;;;1.98;1.20;;;;;;;20.95;46.61;100382.53;4807610;29;20029;-69
2021/05/28 08:26:41;;;;;;;5.93;1.50;;;;;;;21.00;48.04;100387.63;4808920;29;20038;-69
2021/05/28 08:29:08;;;;;;;7.78;1.40;;;;;;;21.07;48.17;100383.63;4808940;29;20376;-70
2021/05/28 08:31:33;;;;;;;5.13;1.55;;;;;;;21.13;47.97;100382.56;4837926;29;20027;-69
2021/05/28 08:33:59;;;;;;;1.80;1.27;;;;;;;21.21;47.07;100380.16;4822981;29;20041;-70
2021/05/28 08:36:24;;;;;;;4.07;1.02;;;;;;;21.26;46.50;100388.91;4837971;29;20300;-69
2021/05/28 08:38:49;;;;;;;3.47;1.35;;;;;;;21.35;46.86;100390.19;4808837;29;20022;-69
2021/05/28 08:41:15;;;;;;;5.97;1.35;;;;;;;21.37;46.36;100393.38;4801264;29;20054;-69
2021/05/28 08:43:42;;;;;;;7.05;1.42;;;;;;;21.41;46.01;100382.56;4838037;29;20030;-70
2021/05/28 08:46:07;;;;;;;8.35;1.33;;;;;;;21.43;47.22;100380.81;4808736;29;20038;-69
2021/05/28 08:48:33;;;;;;;4.72;1.30;;;;;;;21.50;47.42;100389.06;4822708;29;20039;-69
2021/05/28 08:50:58;;;;;;;1.90;1.00;;;;;;;21.53;46.51;100384.47;4808394;29;20087;-69
2021/05/28 08:53:25;;;;;;;2.78;1.45;;;;;;;21.56;45.88;100387.16;4822624;29;20034;-69
2021/05/28 08:55:50;;;;;;;3.67;1.25;;;;;;;21.58;44.98;100383.81;4808342;29;20155;-70
2021/05/28 08:58:21;;;;;;;3.72;1.40;;;;;;;21.65;44.92;100383.50;4808368;29;20105;-69
2021/05/28 09:00:48;;;;;;;4.53;1.48;;;;;;;21.67;45.46;100388.75;4802158;29;20032;-69
2021/05/28 09:03:29;;;;;;;4.28;1.23;;;;;;;21.71;46.71;100384.44;4802144;29;20039;-70
2021/05/28 09:06:16;;;;;;;2.33;1.20;;;;;;;21.76;44.25;100389.50;4800757;29;20110;-69
2021/05/28 09:08:42;;;;;;;2.28;1.13;;;;;;;21.77;43.93;100387.44;4803125;29;20396;-69
2021/05/28 09:11:09;;;;;;;6.28;1.48;;;;;;;21.81;44.55;100379.47;4808516;29;20029;-69
2021/05/28 09:13:46;;;;;;;6.97;1.83;;;;;;;21.81;44.23;100393.78;4807971;29;20083;-69
2021/05/28 09:16:14;;;;;;;4.63;1.20;;;;;;;21.85;45.53;100389.47;4808355;29;20324;-69
2021/05/28 09:18:48;;;;;;;2.20;1.30;;;;;;;21.87;44.35;100386.91;4808108;29;20035;-69
2021/05/28 09:21:20;;;;;;;3.00;1.30;;;;;;;21.88;43.46;100387.72;4807944;29;20026;-69
2021/05/28 09:23:45;;;;;;;4.78;1.75;;;;;;;21.95;45.67;100380.88;4807081;29;20134;-69
2021/05/28 09:26:11;;;;;;;2.92;1.08;;;;;;;21.98;45.18;100392.16;4808348;29;20482;-69
2021/05/28 09:28:45;;;;;;;2.65;1.20;;;;;;;22.04;45.31;100384.53;4807999;29;20119;-69
2021/05/28 09:31:14;;;;;;;5.20;1.40;;;;;;;22.09;44.28;100388.78;4837419;29;20014;-69
2021/05/28 09:33:43;;;;;;;1.52;0.88;;;;;;;22.14;44.54;100386.06;4807956;29;20094;-69
2021/05/28 09:36:33;;;;;;;4.30;1.20;;;;;;;22.20;43.69;100392.75;4807742;29;20058;-69
2021/05/28 09:39:07;;;;;;;5.22;1.75;;;;;;;22.30;45.39;100390.63;4808057;29;20051;-69
2021/05/28 09:41:51;;;;;;;6.13;1.33;;;;;;;22.36;43.38;100382.97;4800566;29;20027;-69
2021/05/28 09:44:22;;;;;;;6.07;1.75;;;;;;;22.45;44.57;100391.50;4808040;29;20042;-69
2021/05/28 09:47:17;;;;;;;6.53;1.92;;;;;;;22.57;43.43;100388.91;4807921;29;20373;-69
2021/05/28 09:49:51;;;;;;;5.28;1.70;;;;;;;22.56;43.11;100387.31;4806325;29;20130;-69
2021/05/28 09:52:21;;;;;;;2.58;0.93;;;;;;;22.54;43.14;100395.59;4808213;29;20050;-69
2021/05/28 09:54:58;;;;;;;3.63;1.40;;;;;;;22.55;42.31;100388.59;4807880;29;20031;-70
2021/05/28 09:57:43;;;;;;;3.60;1.00;;;;;;;22.57;44.77;100404.00;4807985;29;20324;-70
2021/05/28 10:00:34;;;;;;;6.55;1.30;;;;;;;22.61;42.65;100392.38;4835627;29;20034;-69
2021/05/28 10:03:08;;;;;;;2.17;1.05;;;;;;;22.64;43.74;100400.00;4800020;29;20035;-69
2021/05/28 10:05:36;;;;;;;2.55;1.33;;;;;;;22.67;43.46;100384.69;4821503;29;20680;-69
2021/05/28 10:08:01;;;;;;;3.70;1.67;;;;;;;22.67;42.18;100396.94;4822069;29;20039;-69
2021/05/28 10:10:27;;;;;;;1.60;1.10;;;;;;;22.66;43.11;100397.44;4807781;29;20483;-70
2021/05/28 10:12:52;;;;;;;3.28;1.30;;;;;;;22.66;42.95;100406.03;4807751;29;20035;-68
2021/05/28 10:15:18;;;;;;;2.00;0.95;;;;;;;22.68;41.87;100412.84;4837022;29;20038;-69
2021/05/28 10:17:43;;;;;;;1.38;1.05;;;;;;;22.72;41.85;100404.06;4809540;29;20037;-69
2021/05/28 10:20:09;;;;;;;3.45;1.13;;;;;;;22.71;42.19;100403.28;4811130;29;20110;-69
2021/05/28 10:22:34;;;;;;;5.57;1.42;;;;;;;22.70;41.45;100403.78;4809661;29;20449;-69
2021/05/28 10:25:05;;;;;;;5.80;1.38;;;;;;;22.66;41.30;100403.97;4811120;29;20062;-69
2021/05/28 10:27:31;;;;;;;1.55;0.90;;;;;;;22.63;41.28;100404.94;4810746;29;20038;-69
2021/05/28 10:29:56;;;;;;;2.70;1.08;;;;;;;22.64;40.90;100415.13;4810984;29;20027;-69
2021/05/28 10:32:22;;;;;;;3.78;1.02;;;;;;;22.63;40.24;100390.59;4810733;29;20110;-69
2021/05/28 10:35:03;;;;;;;3.55;1.50;;;;;;;22.64;41.22;100391.41;4840055;29;20030;-69
2021/05/28 10:37:29;;;;;;;6.50;1.97;;;;;;;22.68;43.87;100398.53;4824823;29;20027;-69
2021/05/28 10:39:55;;;;;;;1.63;1.15;;;;;;;22.79;41.54;100400.88;4811011;29;20311;-69
2021/05/28 10:42:20;;;;;;;6.18;1.42;;;;;;;22.81;41.63;100401.22;4803653;29;20023;-69
2021/05/28 10:44:45;;;;;;;7.20;1.17;;;;;;;22.84;40.54;100393.69;4810499;29;20026;-69
2021/05/28 10:47:14;;;;;;;5.28;1.75;;;;;;;22.88;41.14;100397.19;4810652;29;20445;-69
2021/05/28 10:49:44;;;;;;;2.90;1.20;;;;;;;22.96;41.79;100396.31;4810786;29;20035;-69
2021/05/28 10:52:12;;;;;;;2.58;0.95;;;;;;;23.06;41.60;100405.66;4810347;29;20125;-68
2021/05/28 10:54:40;;;;;;;3.05;1.27;;;;;;;23.10;41.49;100392.72;4799572;29;20088;-69
2021/05/28 10:57:27;;;;;;;6.78;1.40;;;;;;;23.19;42.67;100402.50;4809004;29;20035;-69
2021/05/28 11:00:04;;;;;;;4.13;1.30;;;;;;;23.20;40.63;100392.63;4824417;29;20033;-69
2021/05/28 11:03:00;;;;;;;3.85;1.08;;;;;;;23.19;41.19;100394.72;4798315;29;20037;-69
2021/05/28 11:05:40;;;;;;;3.25;1.30;;;;;;;23.20;40.65;100392.63;4809368;29;20038;-69
2021/05/28 11:08:41;;;;;;;5.38;1.15;;;;;;;23.22;41.07;100392.94;4810445;29;20035;-69
2021/05/28 11:11:07;;;;;;;5.93;1.50;;;;;;;23.24;38.85;100388.28;4810454;29;20055;-69
2021/05/28 11:13:57;;;;;;;4.45;1.65;;;;;;;23.25;40.20;100389.09;4839484;29;20069;-69
2021/05/28 11:16:23;;;;;;;5.28;1.05;;;;;;;23.29;41.73;100396.25;4839283;29;20037;-69
2021/05/28 11:18:49;;;;;;;4.50;1.40;;;;;;;23.35;39.75;100384.88;4823901;29;20118;-70
2021/05/28 11:21:17;;;;;;;9.13;1.67;;;;;;;23.43;41.32;100388.94;4809930;29;20118;-69
2021/05/28 11:23:48;;;;;;;4.57;1.33;;;;;;;23.49;39.10;100386.97;4822942;29;20030;-69